Time;durP1;ratioP1;P1;durP2;ratioP2;P2;SDS_P1;SDS_P2;PMS_P1;PMS_P2;Temp;Humidity;BMP_temperature;BMP_pressure;BME280_temperature;BME280_humidity;BME280_pressure;Samples;Min_cycle;Max_cycle;Signal;HPM_P1;HPM_P2
2022/05/10 00:00:35;;;;;;;5.30;4.78;;;14.80;58.80;;;;;;5103333;28;20119;-60
2022/05/10 00:03:04;;;;;;;6.10;5.18;;;14.80;58.80;;;;;;5102336;28;20541;-62
2022/05/10 00:05:37;;;;;;;9.13;5.18;;;14.70;58.80;;;;;;5099497;28;20040;-60
2022/05/10 00:08:06;;;;;;;7.38;5.57;;;14.70;59.30;;;;;;5098192;28;20021;-61
2022/05/10 00:10:34;;;;;;;8.05;5.95;;;14.70;59.20;;;;;;5100905;28;20482;-60
2022/05/10 00:13:00;;;;;;;10.02;6.60;;;14.60;59.20;;;;;;5098107;28;20033;-60
2022/05/10 00:15:26;;;;;;;11.23;5.70;;;14.60;59.20;;;;;;5098141;28;20080;-61
2022/05/10 00:17:52;;;;;;;9.57;5.85;;;14.60;59.20;;;;;;5093650;28;20036;-60
2022/05/10 00:20:23;;;;;;;7.38;5.28;;;14.60;59.10;;;;;;5103453;28;20340;-61
2022/05/10 00:22:50;;;;;;;7.85;5.72;;;14.50;59.30;;;;;;5094531;28;20028;-60
2022/05/10 00:25:25;;;;;;;7.53;5.63;;;14.50;59.20;;;;;;5108403;28;20043;-62
2022/05/10 00:27:51;;;;;;;7.20;5.90;;;14.50;59.50;;;;;;5095064;28;20038;-61
2022/05/10 00:30:17;;;;;;;7.50;5.75;;;14.50;59.30;;;;;;5102490;28;20114;-60
2022/05/10 00:32:43;;;;;;;5.53;5.03;;;14.40;59.30;;;;;;5097211;28;20033;-61
2022/05/10 00:35:24;;;;;;;7.53;5.75;;;14.40;59.30;;;;;;5087825;28;20107;-61
2022/05/10 00:37:52;;;;;;;7.68;5.75;;;14.40;60.10;;;;;;5102104;28;20032;-60
2022/05/10 00:40:22;;;;;;;6.68;5.75;;;14.40;59.80;;;;;;5106537;28;20028;-60
2022/05/10 00:42:55;;;;;;;10.10;5.63;;;14.30;60.10;;;;;;5100922;28;20102;-60
2022/05/10 00:45:40;;;;;;;8.00;5.68;;;14.30;60.20;;;;;;5103807;28;20106;-60
2022/05/10 00:48:18;;;;;;;9.65;5.60;;;14.30;60.50;;;;;;5099456;28;20039;-60
2022/05/10 00:50:49;;;;;;;7.13;5.75;;;14.30;60.60;;;;;;5106031;28;20113;-60
2022/05/10 00:53:48;;;;;;;7.65;5.13;;;14.30;60.10;;;;;;5097380;28;20034;-60
2022/05/10 00:56:37;;;;;;;7.28;5.45;;;14.20;60.60;;;;;;5072614;28;20040;-61
2022/05/10 00:59:26;;;;;;;6.72;5.20;;;14.20;60.80;;;;;;5098679;28;20020;-60
2022/05/10 01:01:59;;;;;;;6.78;5.43;;;14.20;61.70;;;;;;5102755;28;20071;-60
2022/05/10 01:04:38;;;;;;;9.27;5.78;;;14.10;60.80;;;;;;5100704;28;20070;-61
2022/05/10 01:07:26;;;;;;;6.22;5.13;;;14.10;61.00;;;;;;5101622;28;20024;-60
2022/05/10 01:09:54;;;;;;;13.38;5.78;;;14.00;61.90;;;;;;5087831;28;20119;-60
2022/05/10 01:12:28;;;;;;;7.15;5.55;;;14.00;60.70;;;;;;5098467;28;20415;-60
2022/05/10 01:15:01;;;;;;;8.90;6.03;;;14.00;60.90;;;;;;5097765;28;20081;-61
2022/05/10 01:17:27;;;;;;;7.10;6.25;;;14.00;61.40;;;;;;5097419;28;20024;-61
2022/05/10 01:19:52;;;;;;;8.75;6.45;;;14.00;61.20;;;;;;5095575;28;20062;-60
2022/05/10 01:22:33;;;;;;;9.00;6.18;;;13.90;61.10;;;;;;5091009;28;20031;-60
2022/05/10 01:25:08;;;;;;;7.72;6.10;;;13.90;61.10;;;;;;5096495;28;20056;-60
2022/05/10 01:27:51;;;;;;;14.05;6.10;;;13.90;61.40;;;;;;5094809;28;20027;-61
2022/05/10 01:30:23;;;;;;;7.18;5.63;;;13.90;62.20;;;;;;5091400;28;20162;-61
2022/05/10 01:36:10;;;;;;;7.95;5.78;;;13.80;62.20;;;;;;5102791;28;20035;-61
2022/05/10 01:39:01;;;;;;;9.15;6.03;;;13.80;62.40;;;;;;5093247;28;20024;-61
2022/05/10 01:41:48;;;;;;;8.30;5.75;;;13.80;62.00;;;;;;5091705;28;20667;-61
2022/05/10 01:44:19;;;;;;;7.43;5.75;;;13.70;62.00;;;;;;5094947;28;20096;-60
2022/05/10 01:46:47;;;;;;;10.27;5.88;;;13.70;61.30;;;;;;5103277;28;20031;-60
2022/05/10 01:49:25;;;;;;;7.72;5.50;;;13.70;61.50;;;;;;5105746;28;20047;-60
2022/05/10 01:52:03;;;;;;;9.18;5.93;;;13.60;62.40;;;;;;5097501;28;20029;-61
2022/05/10 01:54:41;;;;;;;6.85;6.15;;;13.60;62.50;;;;;;5092525;28;20042;-60
2022/05/10 01:57:14;;;;;;;8.80;5.60;;;13.60;62.90;;;;;;5101900;28;20794;-60
2022/05/10 01:59:48;;;;;;;7.45;6.20;;;13.60;62.30;;;;;;5095219;28;20047;-61
2022/05/10 02:02:18;;;;;;;8.35;6.40;;;13.50;62.20;;;;;;5100048;28;20027;-61
2022/05/10 02:04:47;;;;;;;9.18;7.07;;;13.50;61.90;;;;;;5105873;28;20077;-61
2022/05/10 02:07:17;;;;;;;6.93;6.22;;;13.50;62.00;;;;;;5095427;28;20028;-60
2022/05/10 02:09:48;;;;;;;6.55;5.85;;;13.50;62.30;;;;;;5109880;28;20447;-60
2022/05/10 02:12:39;;;;;;;6.70;5.70;;;13.50;62.60;;;;;;5099067;28;20024;-61
2022/05/10 02:15:16;;;;;;;7.90;6.07;;;13.40;63.40;;;;;;5105601;28;20051;-61
2022/05/10 02:17:45;;;;;;;8.02;6.40;;;13.40;62.80;;;;;;5093101;28;20024;-60
2022/05/10 02:20:38;;;;;;;7.20;6.22;;;13.40;62.60;;;;;;5093544;28;20042;-60
2022/05/10 02:23:12;;;;;;;5.70;5.10;;;13.40;63.20;;;;;;5094602;28;20047;-61
2022/05/10 02:25:43;;;;;;;6.93;5.78;;;13.30;63.00;;;;;;5097601;28;20032;-60
2022/05/10 02:28:22;;;;;;;10.32;6.18;;;13.30;62.60;;;;;;5099303;28;20028;-60
2022/05/10 02:30:50;;;;;;;6.68;5.93;;;13.30;62.90;;;;;;5103401;28;20020;-61
2022/05/10 02:33:17;;;;;;;6.70;5.57;;;13.20;62.60;;;;;;5098623;28;20035;-60
2022/05/10 02:35:47;;;;;;;10.65;5.85;;;13.20;62.80;;;;;;5102435;28;20081;-62
2022/05/10 02:38:17;;;;;;;6.25;5.53;;;13.20;63.20;;;;;;5101903;28;20096;-61
2022/05/10 02:40:45;;;;;;;6.05;5.45;;;13.20;63.00;;;;;;5107379;28;20032;-61
2022/05/10 02:43:22;;;;;;;6.25;5.65;;;13.10;63.00;;;;;;5102489;28;20016;-60
2022/05/10 02:45:48;;;;;;;7.57;5.80;;;13.10;63.80;;;;;;5098376;28;20046;-60
2022/05/10 02:48:34;;;;;;;9.77;6.13;;;13.10;63.10;;;;;;5097563;28;20059;-60
2022/05/10 02:51:01;;;;;;;7.80;6.32;;;13.10;64.20;;;;;;5091854;28;20067;-61
2022/05/10 02:53:28;;;;;;;8.95;6.00;;;13.10;63.20;;;;;;5098900;28;20031;-60
2022/05/10 02:56:01;;;;;;;6.70;5.80;;;13.00;63.20;;;;;;5099368;28;20024;-60
2022/05/10 02:58:47;;;;;;;7.40;5.80;;;13.00;63.90;;;;;;5105748;28;20150;-60
2022/05/10 03:01:37;;;;;;;6.75;6.05;;;13.00;64.20;;;;;;5099095;28;20036;-60
2022/05/10 03:04:05;;;;;;;6.82;5.72;;;12.90;63.90;;;;;;5106970;28;20036;-61
2022/05/10 03:06:31;;;;;;;8.35;6.22;;;12.90;63.40;;;;;;5098065;28;20031;-60
2022/05/10 03:08:58;;;;;;;7.40;5.88;;;12.90;63.50;;;;;;5110404;28;20023;-60
2022/05/10 03:11:24;;;;;;;7.45;5.47;;;12.90;63.70;;;;;;5090419;28;20029;-61
2022/05/10 03:13:51;;;;;;;6.55;5.88;;;12.80;63.60;;;;;;5106128;28;20027;-61
2022/05/10 03:16:17;;;;;;;9.45;5.95;;;12.80;63.70;;;;;;5097808;28;20032;-60
2022/05/10 03:18:43;;;;;;;7.00;5.80;;;12.80;63.80;;;;;;5092119;28;20043;-60
2022/05/10 03:21:09;;;;;;;10.10;6.20;;;12.80;63.80;;;;;;5105604;28;20390;-60
2022/05/10 03:23:35;;;;;;;8.20;6.70;;;12.80;63.80;;;;;;5103042;28;20032;-60
2022/05/10 03:26:01;;;;;;;6.40;5.80;;;12.80;63.80;;;;;;5105235;28;20096;-60
2022/05/10 03:28:27;;;;;;;7.20;5.57;;;12.70;63.90;;;;;;5097939;28;20111;-61
2022/05/10 03:30:54;;;;;;;9.18;6.22;;;12.70;63.90;;;;;;5095431;28;20029;-61
2022/05/10 03:33:20;;;;;;;8.95;6.38;;;12.70;63.90;;;;;;5107007;28;20108;-61
2022/05/10 03:35:45;;;;;;;7.05;6.32;;;12.70;64.00;;;;;;5106650;28;20127;-60
2022/05/10 03:38:11;;;;;;;8.13;6.32;;;12.70;64.10;;;;;;5104227;28;20036;-60
2022/05/10 03:40:38;;;;;;;8.60;6.32;;;12.60;64.10;;;;;;5097612;28;20035;-60
2022/05/10 03:43:07;;;;;;;6.72;6.03;;;12.60;64.00;;;;;;5106625;28;20012;-60
2022/05/10 03:45:33;;;;;;;7.22;5.90;;;12.60;64.20;;;;;;5106287;28;20120;-60
2022/05/10 03:47:59;;;;;;;7.75;6.05;;;12.60;64.20;;;;;;5105133;28;20467;-60
2022/05/10 03:50:25;;;;;;;7.88;6.07;;;12.60;64.20;;;;;;5096212;28;20052;-60
2022/05/10 03:52:51;;;;;;;11.68;6.28;;;12.60;64.30;;;;;;5099705;28;20024;-60
2022/05/10 03:55:20;;;;;;;8.93;5.80;;;12.50;64.30;;;;;;5107122;28;20020;-60
2022/05/10 03:57:45;;;;;;;7.63;6.32;;;12.50;64.50;;;;;;5106715;28;20024;-61
2022/05/10 04:00:15;;;;;;;9.73;5.88;;;12.50;64.50;;;;;;5104598;28;20037;-61
2022/05/10 04:02:41;;;;;;;6.10;5.50;;;12.50;64.60;;;;;;5096225;28;20035;-60
2022/05/10 04:05:08;;;;;;;6.43;5.65;;;12.50;64.60;;;;;;5098501;28;20036;-60
2022/05/10 04:07:34;;;;;;;9.60;5.72;;;12.50;64.60;;;;;;5101807;28;20370;-60
2022/05/10 04:09:59;;;;;;;7.25;6.03;;;12.40;64.50;;;;;;5102108;28;20416;-60
2022/05/10 04:12:25;;;;;;;7.95;5.85;;;12.50;64.70;;;;;;5105196;28;20058;-61
2022/05/10 04:14:51;;;;;;;9.60;6.15;;;12.50;64.70;;;;;;5095639;28;20028;-60
2022/05/10 04:17:16;;;;;;;9.70;6.82;;;12.50;64.70;;;;;;5096833;28;20046;-61
2022/05/10 04:19:42;;;;;;;8.60;6.63;;;12.40;64.90;;;;;;5094290;28;20701;-60
2022/05/10 04:22:08;;;;;;;12.05;6.95;;;12.50;64.90;;;;;;5095563;28;20368;-62
2022/05/10 04:24:34;;;;;;;7.68;6.45;;;12.40;64.90;;;;;;5102573;28;20084;-60
2022/05/10 04:27:00;;;;;;;9.13;6.70;;;12.50;65.00;;;;;;5094729;28;20086;-60
2022/05/10 04:29:26;;;;;;;6.97;6.28;;;12.50;65.10;;;;;;5095972;28;20070;-60
2022/05/10 04:31:52;;;;;;;8.45;5.35;;;12.50;65.20;;;;;;5091177;28;20024;-61
2022/05/10 04:34:18;;;;;;;8.77;6.65;;;12.50;65.30;;;;;;5107577;28;20024;-61
2022/05/10 04:36:44;;;;;;;7.60;6.15;;;12.50;65.30;;;;;;5101839;28;20053;-60
2022/05/10 04:39:10;;;;;;;6.82;6.13;;;12.60;65.30;;;;;;5102898;28;20024;-60
2022/05/10 04:41:38;;;;;;;7.32;6.22;;;12.60;65.30;;;;;;5105523;28;20032;-61
2022/05/10 04:44:06;;;;;;;7.85;6.95;;;12.60;65.40;;;;;;5106193;28;20028;-60
2022/05/10 04:46:35;;;;;;;8.40;6.93;;;12.70;65.20;;;;;;5092968;28;20049;-60
2022/05/10 04:49:01;;;;;;;7.70;6.70;;;12.80;65.00;;;;;;5103137;28;20466;-60
2022/05/10 04:51:28;;;;;;;8.07;6.47;;;12.80;65.00;;;;;;5104616;28;20020;-61
2022/05/10 04:53:54;;;;;;;8.30;6.53;;;12.90;65.10;;;;;;5101106;28;20023;-60
2022/05/10 04:56:21;;;;;;;7.85;6.47;;;12.90;65.10;;;;;;5107050;28;20028;-60
2022/05/10 04:58:47;;;;;;;15.65;6.63;;;13.00;65.20;;;;;;5097103;28;20039;-61
2022/05/10 05:01:15;;;;;;;7.75;6.32;;;13.10;65.10;;;;;;5103784;28;20494;-60
2022/05/10 05:03:46;;;;;;;10.38;6.45;;;13.20;65.10;;;;;;5106859;28;20024;-61
2022/05/10 05:06:12;;;;;;;8.32;6.72;;;13.30;65.20;;;;;;5104879;28;20057;-60
2022/05/10 05:08:37;;;;;;;7.75;6.63;;;13.40;65.00;;;;;;5097517;28;20071;-60
2022/05/10 05:11:03;;;;;;;10.90;6.90;;;13.40;64.90;;;;;;5098727;28;20118;-60
2022/05/10 05:13:29;;;;;;;9.35;6.97;;;13.50;64.90;;;;;;5100776;28;20035;-60
2022/05/10 05:15:55;;;;;;;8.40;6.53;;;13.60;64.80;;;;;;5104180;28;20110;-61
2022/05/10 05:18:21;;;;;;;10.05;6.32;;;13.70;64.70;;;;;;5100181;28;20028;-60
2022/05/10 05:20:48;;;;;;;7.03;5.65;;;13.80;64.60;;;;;;5106491;28;20016;-61
2022/05/10 05:23:16;;;;;;;13.20;5.93;;;13.90;64.60;;;;;;5097892;28;20479;-60
2022/05/10 05:25:42;;;;;;;13.73;7.07;;;14.00;64.50;;;;;;5035594;28;20062;-61
2022/05/10 05:28:09;;;;;;;9.75;6.53;;;14.00;64.40;;;;;;5097181;28;20025;-62
2022/05/10 05:30:34;;;;;;;12.88;6.72;;;14.20;64.30;;;;;;5102709;28;20054;-60
2022/05/10 05:33:00;;;;;;;9.73;6.57;;;14.30;64.20;;;;;;5092658;28;20028;-61
2022/05/10 05:35:27;;;;;;;8.60;6.78;;;14.40;64.20;;;;;;5103289;28;20019;-60
2022/05/10 05:37:54;;;;;;;14.85;6.72;;;14.50;64.10;;;;;;5093010;28;20057;-60
2022/05/10 05:40:20;;;;;;;9.35;6.28;;;14.60;64.00;;;;;;5105160;28;20024;-61
2022/05/10 05:42:47;;;;;;;13.55;6.47;;;14.70;63.80;;;;;;5093096;28;20042;-60
2022/05/10 05:45:15;;;;;;;7.95;6.72;;;14.80;63.80;;;;;;5102577;28;20844;-60
2022/05/10 05:47:41;;;;;;;13.13;6.85;;;14.90;63.70;;;;;;5094263;28;20019;-61
2022/05/10 05:50:08;;;;;;;8.57;6.53;;;15.10;63.70;;;;;;5100308;28;20055;-60
2022/05/10 05:52:34;;;;;;;11.57;7.15;;;15.20;63.50;;;;;;5096367;28;20024;-60
2022/05/10 05:55:00;;;;;;;9.10;6.63;;;15.30;63.40;;;;;;5091267;28;22205;-60
2022/05/10 05:57:26;;;;;;;7.78;6.25;;;15.40;63.20;;;;;;5100240;28;20028;-60
2022/05/10 05:59:53;;;;;;;8.65;6.43;;;15.60;63.10;;;;;;5096541;28;20023;-60
2022/05/10 06:02:21;;;;;;;11.07;6.47;;;15.70;63.10;;;;;;5089393;28;20039;-60
2022/05/10 06:04:47;;;;;;;10.70;6.30;;;15.80;63.00;;;;;;5100783;28;20027;-60
2022/05/10 06:07:16;;;;;;;9.02;6.78;;;16.00;62.80;;;;;;5089825;28;20941;-60
2022/05/10 06:09:43;;;;;;;9.90;6.40;;;16.10;63.20;;;;;;5086621;28;20031;-61
2022/05/10 06:12:10;;;;;;;10.65;6.53;;;16.30;62.50;;;;;;5088877;28;20027;-61
2022/05/10 06:14:37;;;;;;;7.57;6.43;;;16.40;62.20;;;;;;5089121;28;20040;-61
2022/05/10 06:17:03;;;;;;;10.27;6.75;;;16.50;62.00;;;;;;5097046;28;20113;-61
2022/05/10 06:19:30;;;;;;;17.33;6.97;;;16.70;61.80;;;;;;5091804;28;20031;-60
2022/05/10 06:21:56;;;;;;;10.25;7.03;;;16.80;61.60;;;;;;5087599;28;20028;-60
2022/05/10 06:24:23;;;;;;;10.30;7.38;;;17.00;61.40;;;;;;5093186;28;20039;-60
2022/05/10 06:26:49;;;;;;;10.70;7.30;;;17.20;61.20;;;;;;5089656;28;20066;-61
2022/05/10 06:29:15;;;;;;;11.07;7.72;;;17.40;61.00;;;;;;5099725;28;20029;-62
2022/05/10 06:31:42;;;;;;;8.77;7.68;;;17.50;60.80;;;;;;5092327;28;20021;-61
2022/05/10 06:34:09;;;;;;;15.73;7.45;;;17.60;61.30;;;;;;5090358;28;20031;-61
2022/05/10 06:36:35;;;;;;;12.48;8.02;;;17.70;60.10;;;;;;5106449;28;20020;-61
2022/05/10 06:39:01;;;;;;;10.07;8.30;;;17.90;59.90;;;;;;5097810;28;20031;-60
2022/05/10 06:41:26;;;;;;;9.07;7.63;;;18.00;59.60;;;;;;5094862;28;20024;-61
2022/05/10 06:43:52;;;;;;;11.48;7.63;;;18.10;59.50;;;;;;5103909;28;20053;-60
2022/05/10 06:46:20;;;;;;;10.63;8.05;;;18.20;59.40;;;;;;5099062;28;20043;-60
2022/05/10 06:48:47;;;;;;;12.27;7.38;;;18.30;59.30;;;;;;5093151;28;20064;-61
2022/05/10 06:51:15;;;;;;;9.70;8.25;;;18.50;59.40;;;;;;5111506;28;20099;-60
2022/05/10 06:53:41;;;;;;;8.57;7.43;;;18.60;60.00;;;;;;5082223;28;20052;-61
2022/05/10 06:56:08;;;;;;;10.45;7.72;;;18.80;59.30;;;;;;5108444;28;20028;-61
2022/05/10 06:58:34;;;;;;;11.90;7.55;;;18.90;59.20;;;;;;5090532;28;20031;-62
2022/05/10 07:01:02;;;;;;;11.93;7.82;;;19.10;59.00;;;;;;5093364;28;20073;-61
2022/05/10 07:03:33;;;;;;;10.02;7.63;;;19.20;58.70;;;;;;5095320;28;20024;-61
2022/05/10 07:06:01;;;;;;;10.23;7.55;;;19.40;58.50;;;;;;5106824;28;20058;-61
2022/05/10 07:08:27;;;;;;;11.82;8.35;;;19.60;58.40;;;;;;5087362;28;20032;-61
2022/05/10 07:10:53;;;;;;;11.13;7.72;;;19.70;58.50;;;;;;5089114;28;20439;-60
2022/05/10 07:13:22;;;;;;;9.35;7.38;;;19.90;58.40;;;;;;5087941;28;20036;-61
2022/05/10 07:15:47;;;;;;;10.50;7.95;;;20.00;58.10;;;;;;5104312;28;20077;-61
2022/05/10 07:18:14;;;;;;;8.68;7.15;;;20.20;57.90;;;;;;5104391;28;20026;-62
2022/05/10 07:20:41;;;;;;;11.25;8.30;;;20.30;57.80;;;;;;5101773;28;20024;-60
2022/05/10 07:23:06;;;;;;;11.82;8.00;;;20.40;57.60;;;;;;5101330;28;20036;-61
2022/05/10 07:25:32;;;;;;;13.10;8.25;;;20.60;57.50;;;;;;5105736;28;20039;-62
2022/05/10 07:27:58;;;;;;;8.63;7.70;;;20.70;57.10;;;;;;5096900;28;20095;-61
2022/05/10 07:30:26;;;;;;;14.30;8.43;;;20.80;57.10;;;;;;5089047;28;20017;-62
2022/05/10 07:32:52;;;;;;;10.75;8.35;;;20.90;57.00;;;;;;5096955;28;20032;-63
2022/05/10 07:38:06;;;;;;;12.40;8.43;;;21.10;56.40;;;;;;5102770;28;20046;-61
2022/05/10 07:40:32;;;;;;;10.77;8.55;;;21.30;56.40;;;;;;5104878;28;20032;-62
2022/05/10 07:42:58;;;;;;;9.38;8.25;;;21.40;56.30;;;;;;5107506;28;20039;-62
2022/05/10 07:45:24;;;;;;;11.30;8.30;;;21.50;56.20;;;;;;5105203;28;20118;-62
2022/05/10 07:47:50;;;;;;;9.50;8.45;;;21.60;56.10;;;;;;5097478;28;20569;-62
2022/05/10 07:50:16;;;;;;;12.35;8.07;;;21.70;55.80;;;;;;5103107;28;20055;-62
2022/05/10 07:52:42;;;;;;;9.45;8.45;;;21.80;55.60;;;;;;5101559;28;20055;-62
2022/05/10 07:55:09;;;;;;;11.25;8.57;;;21.90;55.50;;;;;;5097308;28;20035;-62
2022/05/10 07:57:35;;;;;;;10.82;7.57;;;22.00;55.00;;;;;;5098898;28;20056;-62
2022/05/10 08:00:00;;;;;;;12.35;8.02;;;22.20;55.00;;;;;;5103544;28;20079;-62
2022/05/10 08:02:26;;;;;;;8.95;7.47;;;22.30;54.90;;;;;;5095965;28;20020;-62
2022/05/10 08:04:52;;;;;;;10.95;8.00;;;22.40;54.60;;;;;;5096817;28;20040;-62
2022/05/10 08:07:17;;;;;;;14.23;8.82;;;22.50;54.60;;;;;;5101338;28;20032;-62
2022/05/10 08:09:43;;;;;;;10.30;7.93;;;22.60;54.10;;;;;;5104823;28;20028;-61
2022/05/10 08:12:10;;;;;;;10.52;7.57;;;22.70;54.00;;;;;;5095880;28;20043;-62
2022/05/10 08:14:35;;;;;;;10.30;7.38;;;22.80;53.90;;;;;;5092759;28;20032;-61
2022/05/10 08:17:01;;;;;;;10.73;7.35;;;22.80;54.00;;;;;;5092640;28;20021;-62
2022/05/10 08:19:26;;;;;;;8.15;6.55;;;23.00;53.80;;;;;;5106735;28;20028;-61
2022/05/10 08:21:55;;;;;;;8.73;6.97;;;23.10;53.60;;;;;;5098443;28;20032;-62
2022/05/10 08:24:22;;;;;;;9.38;6.68;;;23.20;53.30;;;;;;5088988;28;20122;-61
2022/05/10 08:26:48;;;;;;;8.27;7.47;;;23.40;53.00;;;;;;5095143;28;20028;-61
2022/05/10 08:29:14;;;;;;;7.53;6.65;;;23.50;52.70;;;;;;5103407;28;20047;-61
2022/05/10 08:31:40;;;;;;;8.18;6.47;;;23.70;53.10;;;;;;5101802;28;20028;-61
2022/05/10 08:34:06;;;;;;;10.25;6.75;;;23.80;52.30;;;;;;5109658;28;20031;-62
2022/05/10 08:36:32;;;;;;;8.52;6.95;;;23.90;52.40;;;;;;5095326;28;20028;-61
2022/05/10 08:38:58;;;;;;;10.40;6.45;;;24.00;52.40;;;;;;5103585;28;20069;-62
2022/05/10 08:41:24;;;;;;;8.18;6.82;;;24.20;52.20;;;;;;5102443;28;20020;-60
2022/05/10 08:44:07;;;;;;;10.77;6.22;;;24.20;51.80;;;;;;5095491;28;20023;-60
2022/05/10 08:46:39;;;;;;;8.30;6.53;;;24.30;51.20;;;;;;5101236;28;20040;-62
2022/05/10 08:49:37;;;;;;;7.95;6.30;;;24.50;50.80;;;;;;5091931;28;20415;-61
2022/05/10 08:52:03;;;;;;;9.13;6.10;;;24.60;49.90;;;;;;5102520;28;20054;-60
2022/05/10 08:54:30;;;;;;;8.70;6.18;;;24.70;50.80;;;;;;5090268;28;20028;-60
2022/05/10 08:57:31;;;;;;;8.13;5.75;;;24.80;50.30;;;;;;5098779;28;20028;-60
2022/05/10 09:00:06;;;;;;;6.90;4.57;;;24.90;49.10;;;;;;5062666;28;20396;-61
2022/05/10 09:02:44;;;;;;;9.80;5.00;;;25.00;49.30;;;;;;5054810;28;20028;-60
2022/05/10 09:05:29;;;;;;;6.80;5.18;;;25.10;48.80;;;;;;5061410;28;20041;-61
2022/05/10 09:08:01;;;;;;;6.30;4.72;;;25.30;48.30;;;;;;5057336;28;20106;-60
2022/05/10 09:10:38;;;;;;;6.35;4.50;;;25.40;49.10;;;;;;5058497;28;20099;-60
2022/05/10 09:13:08;;;;;;;7.68;4.30;;;25.40;47.40;;;;;;5058118;28;20048;-60
2022/05/10 09:15:40;;;;;;;7.82;4.78;;;25.50;47.20;;;;;;5061856;28;20063;-60
2022/05/10 09:18:34;;;;;;;5.85;4.47;;;25.60;47.60;;;;;;5063742;28;20036;-60
2022/05/10 09:21:26;;;;;;;5.47;3.92;;;25.60;46.70;;;;;;5055305;28;20060;-61
2022/05/10 09:24:22;;;;;;;5.82;3.72;;;25.70;45.80;;;;;;5053162;28;20519;-61
2022/05/10 09:26:55;;;;;;;5.50;3.88;;;25.80;45.70;;;;;;4943745;28;20182;-60
2022/05/10 09:29:36;;;;;;;5.20;4.05;;;25.90;46.50;;;;;;5055890;28;20143;-60
2022/05/10 09:35:05;;;;;;;11.38;4.70;;;26.10;46.10;;;;;;5054760;28;20044;-61
2022/05/10 09:37:38;;;;;;;4.57;3.65;;;26.20;46.20;;;;;;5095777;28;20024;-62
2022/05/10 09:40:26;;;;;;;5.68;2.90;;;26.30;45.30;;;;;;5098955;28;20024;-62
2022/05/10 09:43:11;;;;;;;4.95;3.42;;;26.40;44.60;;;;;;5099067;28;20024;-60
2022/05/10 09:45:37;;;;;;;4.47;3.50;;;26.50;43.90;;;;;;5096117;28;20039;-60
2022/05/10 09:48:09;;;;;;;5.25;3.55;;;26.60;44.20;;;;;;5090936;28;20025;-61
2022/05/10 09:50:52;;;;;;;7.68;4.20;;;26.60;43.80;;;;;;5094150;28;20048;-60
2022/05/10 09:53:26;;;;;;;5.30;4.28;;;26.70;44.20;;;;;;5097448;28;20028;-61
2022/05/10 09:56:15;;;;;;;5.95;4.35;;;26.70;43.30;;;;;;5109650;28;20031;-60
2022/05/10 09:58:51;;;;;;;4.63;3.63;;;26.80;42.60;;;;;;5096352;28;20482;-61
2022/05/10 10:01:40;;;;;;;4.40;3.10;;;26.80;43.60;;;;;;5092580;28;20039;-60
2022/05/10 10:04:25;;;;;;;7.85;3.50;;;26.90;42.60;;;;;;5100041;28;20024;-61
2022/05/10 10:07:09;;;;;;;9.15;3.38;;;26.90;42.60;;;;;;5098994;28;20055;-61
2022/05/10 10:09:38;;;;;;;4.40;3.15;;;27.00;42.20;;;;;;5101074;28;20040;-61
2022/05/10 10:12:12;;;;;;;5.70;3.40;;;27.00;42.60;;;;;;5095430;28;20089;-61
2022/05/10 10:14:41;;;;;;;5.10;3.60;;;27.00;41.20;;;;;;5107723;28;20023;-62
2022/05/10 10:17:22;;;;;;;7.00;3.53;;;27.00;41.40;;;;;;5105876;28;20028;-61
2022/05/10 10:20:01;;;;;;;7.38;3.70;;;26.90;40.60;;;;;;5105565;28;20454;-61
2022/05/10 10:22:46;;;;;;;3.85;3.00;;;26.90;40.70;;;;;;5107446;28;20032;-61
2022/05/10 10:25:39;;;;;;;4.80;2.90;;;27.00;39.90;;;;;;5011779;28;20507;-61
2022/05/10 10:28:38;;;;;;;6.03;2.92;;;27.00;41.20;;;;;;5098003;28;20421;-60
2022/05/10 10:31:15;;;;;;;6.05;3.78;;;27.10;40.10;;;;;;5108035;28;20035;-60
2022/05/10 10:34:03;;;;;;;4.70;3.40;;;27.10;39.30;;;;;;5103906;28;20027;-61
2022/05/10 10:36:46;;;;;;;3.58;3.05;;;27.10;39.80;;;;;;5103749;28;20032;-61
2022/05/10 10:39:23;;;;;;;4.18;3.20;;;27.20;41.20;;;;;;5104001;28;20039;-60
2022/05/10 10:41:59;;;;;;;4.45;3.20;;;27.30;40.90;;;;;;5099857;28;20087;-61
2022/05/10 10:44:28;;;;;;;4.13;3.13;;;27.30;40.00;;;;;;5096880;28;20092;-62
2022/05/10 10:47:14;;;;;;;6.55;3.20;;;27.40;39.90;;;;;;5107690;28;20093;-61
2022/05/10 10:49:46;;;;;;;3.30;3.00;;;27.50;40.00;;;;;;5085685;28;20051;-61
2022/05/10 10:52:13;;;;;;;5.43;2.58;;;27.60;39.60;;;;;;5111413;28;20024;-61
2022/05/10 10:54:39;;;;;;;4.63;2.33;;;27.70;40.10;;;;;;5112287;28;20028;-62
2022/05/10 10:57:48;;;;;;;2.80;2.50;;;27.80;39.40;;;;;;5105533;28;20051;-62
2022/05/10 11:00:19;;;;;;;3.35;2.00;;;28.00;37.40;;;;;;5104534;28;20031;-62
2022/05/10 11:03:03;;;;;;;2.08;1.75;;;28.10;38.40;;;;;;5108227;28;20069;-61
2022/05/10 11:05:41;;;;;;;3.40;1.90;;;28.30;36.80;;;;;;5112132;28;20043;-62
2022/05/10 11:08:46;;;;;;;3.35;2.58;;;28.40;36.90;;;;;;5107172;28;20155;-62
2022/05/10 11:11:47;;;;;;;5.18;2.58;;;28.40;37.70;;;;;;5096243;28;20081;-62
2022/05/10 11:14:29;;;;;;;4.07;2.42;;;28.50;36.80;;;;;;5102241;28;20051;-63
2022/05/10 11:17:07;;;;;;;3.03;2.35;;;28.60;37.90;;;;;;5100591;28;20035;-62
2022/05/10 11:20:11;;;;;;;2.97;2.13;;;28.70;37.50;;;;;;5109265;28;20460;-62
2022/05/10 11:22:40;;;;;;;3.40;2.17;;;28.70;36.40;;;;;;5105852;28;20114;-62
2022/05/10 11:25:24;;;;;;;3.10;2.10;;;28.80;37.60;;;;;;5109005;28;20092;-62
2022/05/10 11:28:26;;;;;;;3.75;2.17;;;28.80;36.40;;;;;;5107615;28;20020;-62
2022/05/10 11:31:06;;;;;;;8.15;2.45;;;28.90;36.80;;;;;;5101276;28;20040;-60
2022/05/10 11:33:38;;;;;;;2.85;2.20;;;29.00;37.00;;;;;;5108503;28;20046;-61
2022/05/10 11:36:59;;;;;;;3.17;1.80;;;29.10;37.10;;;;;;5111504;28;20020;-61
2022/05/10 11:39:54;;;;;;;3.35;1.95;;;29.10;35.80;;;;;;5019954;28;20049;-61
2022/05/10 11:42:37;;;;;;;3.40;2.40;;;29.20;35.40;;;;;;5020904;28;20025;-62
2022/05/10 11:45:21;;;;;;;2.85;2.10;;;29.30;34.80;;;;;;5013471;28;20050;-61
2022/05/10 11:48:16;;;;;;;5.80;2.33;;;29.40;34.70;;;;;;5020342;28;20049;-62
2022/05/10 11:54:22;;;;;;;2.08;1.63;;;29.50;34.60;;;;;;5015033;28;20069;-62
2022/05/10 11:56:50;;;;;;;3.03;1.90;;;29.60;34.40;;;;;;5017291;28;20118;-62
2022/05/10 11:59:27;;;;;;;3.05;1.80;;;29.70;35.50;;;;;;5013115;28;20044;-62
2022/05/10 12:01:54;;;;;;;2.35;1.60;;;29.80;33.70;;;;;;5011027;28;20124;-61
2022/05/10 12:04:41;;;;;;;2.13;1.60;;;29.90;34.40;;;;;;5019882;28;20085;-61
2022/05/10 12:07:19;;;;;;;5.10;2.00;;;30.10;34.20;;;;;;5020687;28;20034;-62
2022/05/10 12:10:06;;;;;;;3.47;2.00;;;30.20;34.30;;;;;;5037858;28;20040;-62
2022/05/10 12:12:31;;;;;;;2.67;1.85;;;30.40;33.50;;;;;;5077441;28;20084;-63
2022/05/10 12:24:02;;;;;;;3.33;1.70;;;30.60;33.80;;;;;;5076313;28;20164;-61
2022/05/10 12:26:54;;;;;;;3.25;1.65;;;30.70;31.90;;;;;;5077527;28;20058;-62
2022/05/10 12:29:37;;;;;;;2.88;1.80;;;30.80;32.60;;;;;;5078917;28;20101;-62
2022/05/10 12:32:18;;;;;;;2.60;2.05;;;30.80;32.40;;;;;;5075002;28;20379;-60
2022/05/10 12:34:48;;;;;;;2.63;1.95;;;30.80;31.10;;;;;;5079685;28;20036;-61
2022/05/10 12:37:24;;;;;;;2.33;1.77;;;30.70;31.90;;;;;;5082118;28;20507;-61
2022/05/10 12:39:58;;;;;;;3.28;1.98;;;30.70;31.50;;;;;;5077625;28;20020;-62
2022/05/10 12:42:38;;;;;;;1.65;1.55;;;30.70;31.80;;;;;;5073213;28;20108;-61
2022/05/10 12:45:33;;;;;;;3.22;1.90;;;30.80;32.00;;;;;;5078827;28;20044;-62
2022/05/10 12:48:24;;;;;;;3.08;1.73;;;30.70;30.90;;;;;;5075845;28;20095;-62
2022/05/10 12:50:55;;;;;;;4.25;1.77;;;30.80;30.30;;;;;;5097394;28;20546;-62
2022/05/10 12:53:48;;;;;;;4.90;1.85;;;30.70;31.00;;;;;;5091617;28;20046;-62
2022/05/10 12:56:23;;;;;;;2.13;1.90;;;30.70;30.00;;;;;;5103922;28;20036;-63
2022/05/10 12:58:55;;;;;;;3.05;1.70;;;30.70;30.00;;;;;;5103621;28;20024;-61
2022/05/10 13:01:24;;;;;;;2.08;1.60;;;30.70;31.20;;;;;;5106058;28;20031;-62
2022/05/10 13:04:09;;;;;;;1.90;1.70;;;30.70;31.80;;;;;;5099373;28;20789;-61
2022/05/10 13:06:50;;;;;;;;;;;30.70;31.20;;;;;;5106505;28;20027;-64
2022/05/10 13:09:50;;;;;;;2.97;1.60;;;30.80;32.10;;;;;;5102353;28;19908;-62
2022/05/10 13:12:45;;;;;;;2.67;1.63;;;30.90;30.10;;;;;;5100511;28;20019;-61
2022/05/10 13:15:21;;;;;;;6.25;2.00;;;30.90;31.20;;;;;;5103185;28;20099;-62
2022/05/10 13:17:51;;;;;;;4.20;2.17;;;30.80;30.40;;;;;;5093892;28;20600;-61
2022/05/10 13:20:21;;;;;;;1.70;1.60;;;30.80;30.20;;;;;;5090441;28;20035;-63
2022/05/10 13:22:56;;;;;;;5.13;2.03;;;30.60;30.50;;;;;;5106174;28;20028;-61
2022/05/10 13:25:29;;;;;;;1.77;1.58;;;30.70;29.80;;;;;;5105557;28;20032;-61
2022/05/10 13:28:13;;;;;;;4.07;1.90;;;30.50;29.90;;;;;;5107844;28;20024;-62
2022/05/10 13:30:44;;;;;;;4.38;2.00;;;30.40;30.30;;;;;;5096833;28;20031;-61
2022/05/10 13:33:32;;;;;;;2.38;1.63;;;30.30;31.00;;;;;;5105589;28;20031;-61
2022/05/10 13:36:10;;;;;;;5.63;1.85;;;30.30;31.50;;;;;;5105656;28;20083;-62